Карточка аэропорта UWKD

Внимание!
Информация на этой странице в стадии наполнения.
Если вы не увидели какой-то информации, или заметили неточность - пожалуйста сообщите нам!
Спасибо!
Команда RU-STAFF
Название аэропортаКазань
Название аэропорта (англ.)Kazan
Превышение410 ft. (125 m.)
Координаты55°36.498', 49°16.668'
Высота перехода4000 ft
Эшелон переходаQNH>=1013hPa:FL50; QNH<1013hPa:FL60; QNH<977hPa:FL70
Коды ответчика6732-6737
Зона ОрВДСамара РПИ (UWWW)
Данные METARUWKD 310600Z 18006MPS 2700 -SN BR OVC008 M03/M04 Q1007 R11/810040 TEMPO -FZDZ RMK QFE746/0994
Проноз погоды (TAF)UWKD 310500Z 3106/0106 19006G12MPS 3100 BR OVC007 TXM00/3112Z TNM03/0106Z TEMPO 3106/3112 0800 FZDZ FZFG OVC003
NOTAMshow/hide NOTAM
AWOS   TABLE

Информация о ВПП

ВПП Длина ВПП (м.) Покрытие Курс ВПП Частота ILS
113750Цементобетон111110.5
293750Цементобетон291111.7

Диспетчерские позиции

Позывной Наименование органа УВД Частота
UWKD_R_APPКазань-Круг119.400
UWKD_TWRКазань-Старт120.300
UWKD_GNDКазань-Руление121.700
UWKD_APPКазань-Подход128.625



Спутниковое изображение